Eprise, Alabama
Current Conditions -  °F | °C
As of 9:35 AM on Thursday 30 Oct 2014 (Local Time) from KEDN Reporting Station
Clear Clear  
Wind Chill: 16°   Ceiling: Unl
Heat Index: 16°   Visibility: 10mi
Dew Point:   Wind: 8mph
Humidity: 48%   Direction: 20°NNE
Pressure: 30.09"   Gusts: 16mph
Location:  31.3153°N, 85.8554°W
Report Text: KEDN 301435Z AUTO 02007G14KT 10SM CLR 16/05 A3009 RMK AO2
Loading
Personal Weather Stations






























Interactive Weather Map
Tropical Storm Tracking
New forecast layout! Learn more

10-Day Weather Forecast

Advertisements
Track Severe Weather on mobile